createdAt,value
2023-08-11T00:02:19.525Z,88.85
2023-08-11T00:07:20.517Z,89.62
2023-08-11T00:12:21.525Z,90.75
2023-08-11T00:17:22.545Z,91.56
2023-08-11T00:22:23.500Z,92.61
2023-08-11T00:27:24.429Z,92.82
2023-08-11T00:32:25.282Z,93.35
2023-08-11T00:37:26.585Z,93.14
2023-08-11T00:42:27.421Z,93.87
2023-08-11T00:47:28.369Z,95.23
2023-08-11T00:52:29.263Z,92.93
2023-08-11T00:57:30.078Z,91.55
2023-08-11T01:02:31.478Z,92.00
2023-08-11T01:08:10.947Z,92.37
2023-08-11T01:13:17.719Z,92.75
2023-08-11T01:18:20.403Z,95.40
2023-08-11T01:23:24.939Z,96.28
2023-08-11T01:28:27.469Z,95.59
2023-08-11T01:33:28.300Z,96.07
2023-08-11T01:38:29.177Z,97.09
2023-08-11T01:43:31.670Z,97.40
2023-08-11T01:48:33.932Z,97.18
2023-08-11T01:53:35.097Z,97.93
2023-08-11T01:58:36.620Z,98.03
2023-08-11T02:03:37.846Z,97.52
2023-08-11T02:08:38.829Z,97.65
2023-08-11T02:13:40.176Z,97.00
2023-08-11T02:18:41.082Z,98.61
2023-08-11T02:23:42.008Z,98.84
2023-08-11T02:28:43.262Z,97.98
2023-08-11T02:33:44.408Z,99.93
2023-08-11T02:38:45.382Z,100.00
2023-08-11T02:43:46.216Z,100.00
2023-08-11T02:48:47.136Z,100.00
2023-08-11T02:53:47.977Z,100.00
2023-08-11T02:58:49.900Z,100.00
2023-08-11T03:03:50.825Z,100.00
2023-08-11T03:08:51.764Z,100.00
2023-08-11T03:13:52.958Z,100.00
2023-08-11T03:18:54.280Z,100.00
2023-08-11T03:23:55.475Z,100.00
2023-08-11T03:28:56.474Z,100.00
2023-08-11T03:33:57.578Z,100.00
2023-08-11T03:38:58.431Z,99.82
2023-08-11T03:44:00.284Z,99.06
2023-08-11T03:49:02.353Z,99.63
2023-08-11T03:54:03.383Z,100.00
2023-08-11T03:59:06.288Z,100.00
2023-08-11T04:04:07.728Z,100.00
2023-08-11T04:09:09.753Z,100.00
2023-08-11T04:14:10.694Z,100.00
2023-08-11T04:19:12.205Z,100.00
2023-08-11T04:24:13.539Z,100.00
2023-08-11T04:29:14.544Z,100.00
2023-08-11T04:34:16.667Z,100.00
2023-08-11T04:39:20.286Z,100.00
2023-08-11T04:44:21.789Z,100.00
2023-08-11T04:49:23.046Z,100.00
2023-08-11T04:54:24.353Z,100.00
2023-08-11T04:59:25.309Z,100.00
2023-08-11T05:04:27.086Z,100.00
2023-08-11T05:09:28.017Z,99.76
2023-08-11T05:14:29.002Z,99.95
2023-08-11T05:19:29.927Z,99.98
2023-08-11T05:24:30.730Z,98.41
2023-08-11T05:29:32.590Z,96.45
2023-08-11T05:34:33.413Z,96.20
2023-08-11T05:39:35.971Z,94.33
2023-08-11T05:44:38.007Z,93.36
2023-08-11T05:49:39.316Z,90.67
2023-08-11T05:54:40.136Z,91.64
2023-08-11T05:59:41.202Z,94.19
2023-08-11T06:04:43.254Z,95.19
2023-08-11T06:09:44.903Z,97.72
2023-08-11T06:14:45.725Z,89.25
2023-08-11T06:19:46.641Z,91.67
2023-08-11T06:24:47.478Z,84.43
2023-08-11T06:29:48.638Z,78.89
2023-08-11T06:34:49.550Z,76.03
2023-08-11T06:39:52.205Z,82.75
2023-08-11T06:44:53.042Z,74.75
2023-08-11T06:49:54.078Z,66.96
2023-08-11T06:54:54.925Z,68.56
2023-08-11T06:59:56.736Z,71.84
2023-08-11T07:04:57.568Z,71.24
2023-08-11T07:10:00.642Z,70.59
2023-08-11T07:15:03.996Z,65.57
2023-08-11T07:20:06.145Z,64.02
2023-08-11T07:25:07.572Z,63.24
2023-08-11T07:30:10.141Z,68.14
2023-08-11T07:35:10.980Z,65.89
2023-08-11T07:40:12.912Z,63.93
2023-08-11T07:45:14.168Z,66.42
2023-08-11T07:50:15.163Z,68.38
2023-08-11T07:55:16.072Z,65.52
2023-08-11T08:00:16.982Z,65.42
2023-08-11T08:05:17.865Z,68.47
2023-08-11T08:10:20.534Z,65.51
2023-08-11T08:15:21.395Z,71.87
2023-08-11T08:20:22.553Z,66.21
2023-08-11T08:25:32.265Z,66.58
2023-08-11T08:30:33.955Z,68.83
2023-08-11T08:35:36.467Z,68.57
2023-08-11T08:40:37.943Z,69.64
2023-08-11T08:45:43.096Z,63.30
2023-08-11T08:50:44.131Z,62.22
2023-08-11T08:55:46.440Z,64.49
2023-08-11T09:00:47.543Z,64.60
2023-08-11T09:05:49.018Z,63.36
2023-08-11T09:10:50.251Z,68.32
2023-08-11T09:15:51.209Z,63.49
2023-08-11T09:20:52.615Z,65.68
2023-08-11T09:25:55.425Z,65.40
2023-08-11T09:30:56.220Z,69.69
2023-08-11T09:35:57.267Z,62.94
2023-08-11T09:41:03.479Z,64.00
2023-08-11T09:46:04.376Z,64.30
2023-08-11T09:51:10.722Z,59.83
2023-08-11T09:56:17.189Z,63.70
2023-08-11T10:01:21.854Z,57.90
2023-08-11T10:06:27.720Z,58.48
2023-08-11T10:11:32.072Z,57.14
2023-08-11T10:16:33.459Z,53.46
2023-08-11T10:21:35.411Z,55.08
2023-08-11T10:26:36.728Z,54.82
2023-08-11T10:31:52.352Z,50.61
2023-08-11T10:36:57.617Z,49.00
2023-08-11T10:41:58.634Z,49.18
2023-08-11T10:47:03.209Z,46.83
2023-08-11T10:52:04.482Z,48.17
2023-08-11T10:57:05.656Z,47.24
2023-08-11T11:02:06.561Z,47.29
2023-08-11T11:07:07.430Z,46.09
2023-08-11T11:12:08.825Z,46.47
2023-08-11T11:17:10.019Z,46.08
2023-08-11T11:22:13.474Z,45.13
2023-08-11T11:27:14.360Z,45.68
2023-08-11T11:32:17.263Z,44.30
2023-08-11T11:37:18.262Z,45.64
2023-08-11T11:42:19.116Z,47.42
2023-08-11T11:47:20.160Z,44.87
2023-08-11T11:52:21.358Z,48.42
2023-08-11T11:57:23.194Z,44.22
2023-08-11T12:02:24.303Z,44.59
2023-08-11T12:07:43.546Z,45.84
2023-08-11T12:12:44.378Z,44.99
2023-08-11T12:17:48.969Z,45.55
2023-08-11T12:22:49.892Z,46.58
2023-08-11T12:27:54.350Z,46.00
2023-08-11T12:32:55.553Z,47.94
2023-08-11T12:37:56.444Z,45.68
2023-08-11T12:42:57.318Z,43.76
2023-08-11T12:47:58.500Z,45.91
2023-08-11T12:53:01.389Z,46.68
2023-08-11T12:58:02.637Z,46.01
2023-08-11T13:03:04.252Z,47.74
2023-08-11T13:08:05.639Z,44.51
2023-08-11T13:13:06.606Z,44.91
2023-08-11T13:18:07.558Z,47.55
2023-08-11T13:23:08.940Z,42.31
2023-08-11T13:28:09.800Z,46.50
2023-08-11T13:33:10.738Z,45.43
2023-08-11T13:38:12.772Z,44.62
2023-08-11T13:43:13.631Z,42.83
2023-08-11T13:48:17.217Z,45.26
2023-08-11T13:53:18.322Z,43.33
2023-08-11T13:58:19.447Z,43.33
2023-08-11T14:03:20.336Z,44.42
2023-08-11T14:08:21.264Z,43.16
2023-08-11T14:13:25.235Z,43.42
2023-08-11T14:18:26.092Z,44.42
2023-08-11T14:23:27.647Z,43.68
2023-08-11T14:28:28.444Z,44.44
2023-08-11T14:33:29.326Z,44.10
2023-08-11T14:38:30.289Z,43.91
2023-08-11T14:43:31.153Z,42.50
2023-08-11T14:48:32.010Z,42.94
2023-08-11T14:53:33.403Z,43.90
2023-08-11T14:58:36.300Z,44.85
2023-08-11T15:03:37.384Z,42.09
2023-08-11T15:08:38.531Z,43.42
2023-08-11T15:13:39.327Z,43.60
2023-08-11T15:18:41.634Z,43.28
2023-08-11T15:23:42.507Z,43.18
2023-08-11T15:28:43.441Z,42.73
2023-08-11T15:33:44.358Z,42.81
2023-08-11T15:38:45.199Z,42.75
2023-08-11T15:43:46.041Z,42.43
2023-08-11T15:48:46.931Z,42.83
2023-08-11T15:53:47.786Z,42.92
2023-08-11T15:58:48.669Z,43.40
2023-08-11T16:03:49.572Z,43.61
2023-08-11T16:08:51.144Z,42.84
2023-08-11T16:13:52.166Z,42.62
2023-08-11T16:18:53.049Z,43.07
2023-08-11T16:23:53.936Z,43.28
2023-08-11T16:28:54.798Z,44.08
2023-08-11T16:33:55.718Z,45.30
2023-08-11T16:38:56.617Z,45.43
2023-08-11T16:43:57.454Z,45.64
2023-08-11T16:48:58.290Z,44.70
2023-08-11T16:53:59.277Z,45.81
2023-08-11T16:59:01.279Z,45.79
2023-08-11T17:04:02.326Z,46.18
2023-08-11T17:09:04.449Z,44.54
2023-08-11T17:14:05.221Z,43.89
2023-08-11T17:19:06.112Z,42.80
2023-08-11T17:24:07.772Z,43.25
2023-08-11T17:29:08.815Z,43.99
2023-08-11T17:34:09.745Z,42.88
2023-08-11T17:39:12.223Z,42.13
2023-08-11T17:44:13.550Z,43.22
2023-08-11T17:49:14.342Z,43.55
2023-08-11T17:54:15.380Z,43.65
2023-08-11T17:59:16.228Z,44.69
2023-08-11T18:04:17.344Z,46.25
2023-08-11T18:09:18.167Z,46.38
2023-08-11T18:14:19.013Z,46.84
2023-08-11T18:19:19.824Z,49.11
2023-08-11T18:24:20.771Z,51.87
2023-08-11T18:29:21.686Z,55.95
2023-08-11T18:34:22.621Z,56.83
2023-08-11T18:39:23.539Z,62.00
2023-08-11T18:44:24.794Z,64.09
2023-08-11T18:49:27.502Z,65.29
2023-08-11T18:54:28.390Z,67.58
2023-08-11T18:59:29.346Z,68.92
2023-08-11T19:04:30.142Z,71.42
2023-08-11T19:09:30.982Z,74.52
2023-08-11T19:14:32.104Z,75.99
2023-08-11T19:19:32.940Z,76.95
2023-08-11T19:24:33.811Z,77.76
2023-08-11T19:29:34.655Z,79.27
2023-08-11T19:34:35.426Z,80.89
2023-08-11T19:39:37.537Z,82.46
2023-08-11T19:44:40.464Z,82.77
2023-08-11T19:49:41.278Z,85.63
2023-08-11T19:54:42.218Z,85.70
2023-08-11T19:59:43.012Z,85.29
2023-08-11T20:04:43.929Z,87.08
2023-08-11T20:09:44.787Z,87.86
2023-08-11T20:14:46.706Z,90.25
2023-08-11T20:19:47.493Z,90.19
2023-08-11T20:24:48.532Z,90.06
2023-08-11T20:29:49.353Z,90.73
2023-08-11T20:34:50.197Z,91.31
2023-08-11T20:39:50.994Z,92.91
2023-08-11T20:44:57.024Z,94.45
2023-08-11T20:49:57.846Z,94.17
2023-08-11T20:54:58.744Z,95.22
2023-08-11T20:59:59.555Z,95.84
2023-08-11T21:05:00.615Z,96.56
2023-08-11T21:10:02.842Z,96.26
2023-08-11T21:15:04.124Z,96.61
2023-08-11T21:20:06.078Z,96.92
2023-08-11T21:25:07.496Z,97.53
2023-08-11T21:30:08.765Z,99.08
2023-08-11T21:35:09.762Z,99.29
2023-08-11T21:40:10.771Z,99.45
2023-08-11T21:45:11.966Z,99.22
2023-08-11T21:50:12.795Z,99.69
2023-08-11T21:55:13.722Z,100.00
2023-08-11T22:00:14.872Z,100.00
2023-08-11T22:05:29.074Z,100.00
2023-08-11T22:10:29.953Z,100.00
2023-08-11T22:15:30.813Z,100.00
2023-08-11T22:20:31.787Z,100.00
2023-08-11T22:25:34.266Z,100.00
2023-08-11T22:30:35.191Z,100.00
2023-08-11T22:35:40.537Z,100.00
2023-08-11T22:40:41.404Z,100.00
2023-08-11T22:45:42.270Z,100.00
2023-08-11T22:50:43.186Z,100.00
2023-08-11T22:55:44.117Z,100.00
2023-08-11T23:00:44.943Z,100.00
2023-08-11T23:05:45.859Z,100.00
2023-08-11T23:10:48.406Z,100.00
2023-08-11T23:15:49.273Z,100.00
2023-08-11T23:20:50.055Z,100.00
2023-08-11T23:25:50.993Z,100.00
2023-08-11T23:30:51.952Z,100.00
2023-08-11T23:35:55.893Z,100.00
2023-08-11T23:40:56.800Z,100.00
2023-08-11T23:45:58.527Z,100.00
2023-08-11T23:50:59.334Z,100.00
2023-08-11T23:56:01.185Z,100.00
